ADDS METAR Data INFO
IDs: Format: Raw Decoded Include TAF

Data at: 1503 UTC 23 Oct 2017

KBBG 231450Z 24007KT 10SM SKC 12/06 A3004
KBBG 231352Z 25004KT 10SM SKC 10/05 A3004
KBBG 231252Z 00000KT 10SM FEW020 07/04 A3002
KBBG 231154Z 00000KT 10SM FEW018 07/04 A3003
KBBG 231115Z AUTO 25004KT 10SM BKN018 08/04 A3003 RMK AO2
KBBG 231055Z AUTO 00000KT 10SM BKN018 08/04 A3003 RMK AO2
KBBG 231035Z AUTO 25003KT 10SM SCT018 07/05 A3003 RMK AO2
KBBG 231015Z AUTO 00000KT 10SM SCT018 07/06 A3003 RMK AO2
KBBG 230955Z AUTO 00000KT 10SM CLR 07/07 A3002 RMK AO2
KBBG 230935Z AUTO 00000KT 10SM FEW018 08/07 A3002 RMK AO2
KBBG 230915Z AUTO 00000KT 10SM FEW018 08/07 A3002 RMK AO2
KBBG 230855Z AUTO 00000KT 10SM FEW020 08/08 A3004 RMK AO2
KBBG 230835Z AUTO 00000KT 10SM FEW020 09/08 A3005 RMK AO2
KBBG 230815Z AUTO 00000KT 10SM FEW023 09/08 A3006 RMK AO2
KBBG 230755Z AUTO 00000KT 10SM SCT021 SCT120 09/08 A3006 RMK AO2
KBBG 230735Z AUTO 00000KT 10SM SCT021 09/08 A3007 RMK AO2
KBBG 230715Z AUTO 00000KT 10SM FEW019 FEW023 BKN120 09/07 A3007 RMK AO2
KBBG 230655Z AUTO 00000KT 10SM FEW021 BKN100 OVC120 09/08 A3007 RMK AO2
KBBG 230635Z AUTO 00000KT 10SM FEW017 BKN100 OVC120 09/08 A3007 RMK AO2
KBBG 230615Z AUTO 00000KT 10SM FEW017 BKN110 09/08 A3008 RMK AO2
KBBG 230555Z AUTO 00000KT 10SM FEW017 SCT100 OVC120 09/08 A3008 RMK AO2
KBBG 230535Z AUTO 00000KT 10SM FEW075 OVC095 10/08 A3008 RMK AO2
KBBG 230515Z AUTO 00000KT 10SM FEW075 OVC095 09/08 A3008 RMK AO2
KBBG 230455Z AUTO 00000KT 10SM FEW075 OVC095 10/09 A3009 RMK AO2
KBBG 230435Z AUTO 00000KT 10SM OVC095 10/08 A3009 RMK AO2
KBBG 230415Z AUTO 00000KT 10SM SCT075 OVC095 10/08 A3010 RMK AO2
KBBG 230355Z AUTO 00000KT 10SM OVC075 10/09 A3011 RMK AO2
KBBG 230335Z AUTO 00000KT 10SM OVC075 10/09 A3011 RMK AO2
KBBG 230315Z AUTO 30003KT 10SM BKN090 OVC110 10/09 A3011 RMK AO2
KBBG 230255Z AUTO 00000KT 10SM SCT090 OVC120 10/09 A3011 RMK AO2
KBBG 230235Z AUTO 00000KT 10SM SCT090 OVC120 09/09 A3011 RMK AO2
KBBG 230215Z AUTO 00000KT 10SM FEW075 OVC080 09/09 A3011 RMK AO2
KBBG 230155Z AUTO 00000KT 10SM OVC075 10/09 A3012 RMK AO2
KBBG 230153Z 00000KT 10SM OVC075 10/09 A3012
KBBG 230046Z 29005KT 10SM OVC075 10/09 A3013
KBBG 222348Z 31004KT 10SM SCT050 OVC065 10/09 A3011
KBBG 222246Z 30004KT 10SM FEW020 OVC049 10/09 A3011
KBBG 222147Z 32009KT 7SM -RA SCT012 OCV031 10/09 A3011
KBBG 222126Z 32009KT 5SM -RA SCT012 OVC031 10/09 A3012
KBBG 222045Z 32009G15KT 3SM -RA BR BKN009 OVC019 10/10 A3012
KBBG 221947Z 31009KT 2 1/2SM -RA BR BKN005 OVC015 10/10 A3010
KBBG 221845Z 31008G14KT 2SM -RA BR OVC006 11/11 A3011
KBBG 221748Z 31008KT 2SM -RA BR BKN007 OVC013 11/11 A3010
KBBG 221646Z 32007KT 2SM -RA BR BKN006 OVC014 11/11 A3011
KBBG 221547Z 31012G16KT 2SM -RA BR BKN006 OVC022 11/11 A3009
KBBG 221445Z 31012KT 3SM -RA BR BKN006 OVC020 12/11 A3007
KBBG 221345Z 31011G15KT 1SM RA BR OVC005 13/13 A3005
KBBG 221245Z 00000KT 3SM -RA BR BKN002 BKN015 OVC100 14/14 A3000
KBBG 221155Z 23004KT 7SM -RA FEW035 SCT050 OVC065 14/14 A2999
KBBG 221115Z AUTO 22003KT 2SM -RA BKN028 BKN037 OVC085 14/14 A2999 RMK AO2 P0001
KBBG 221055Z AUTO 00000KT 4SM RA BKN028 BKN034 14/14 A2996 RMK AO2 P0010
KBBG 221035Z AUTO 00000KT 5SM -RA FEW025 BKN032 OVC100 14/14 A2996 RMK AO2 P0007
KBBG 221015Z AUTO 00000KT 4SM RA SCT025 BKN030 OVC100 14/14 A2994 RMK AO2 P0004
KBBG 220955Z AUTO 00000KT 4SM -RA FEW027 SCT080 OVC100 14/14 A2997 RMK AO2 P0010
KBBG 220935Z AUTO 00000KT 5SM -RA OVC100 14/14 A2996 RMK AO2 P0007
KBBG 220915Z AUTO 30004KT 5SM -RA FEW008 BKN025 OVC110 14/14 A2997 RMK AO2 P0004
KBBG 220855Z AUTO 31005KT 2 1/2SM VCTS +RA SCT008 BKN025 OVC095 15/15 A2999 RMK AO2 LTG DSNT SE AND NW P0020
KBBG 220835Z AUTO 29004KT 3SM VCTS RA 15/14 A3000 RMK AO2 LTG DSNT ALQDS P0008
KBBG 220815Z AUTO 30006KT 5SM VCTS -RA FEW005 BKN009 OVC014 15/14 A3000 RMK AO2 LTG DSNT ALQDS P0003
KBBG 220755Z AUTO 27006KT 4SM VCTS -RA FEW005 BKN011 OVC026 14/14 A3001 RMK AO2 LTG DSNT ALQDS P0025
KBBG 220735Z AUTO 30008G17KT 3SM VCTS RA FEW005 BKN021 OVC041 14/14 A2998 RMK AO2 LTG DSNT ALQDS P0023
KBBG 220715Z AUTO 30009KT 4SM RA SCT007 BKN014 BKN025 14/14 A2996 RMK AO2 LTG DSNT ALQDS P0011
KBBG 220655Z AUTO 31012G24KT 1 3/4SM VCTS +RA BKN004 OVC011 14/14 A2996 RMK AO2 P0067
KBBG 220635Z AUTO 24004G23KT 1 3/4SM VCTS RA BKN011 BKN021 OVC030 16/14 A2995 RMK AO2 LTG DSNT ALQDS P0004
KBBG 220615Z AUTO 17006KT 10SM VCTS FEW029 SCT033 BKN043 22/19 A2987 RMK AO2 LTG DSNT ALQDS
KBBG 220555Z AUTO 15010G17KT 10SM SCT036 BKN043 OVC080 22/19 A2989 RMK AO2 LTG DSNT SW-NW
KBBG 220535Z AUTO 17005G18KT 10SM BKN080 22/19 A2989 RMK AO2 LTG DSNT W AND NW
KBBG 220515Z AUTO 16009G15KT 10SM FEW022 FEW080 22/19 A2989 RMK AO2 LTG DSNT SW AND W
KBBG 220455Z AUTO 16011G15KT 10SM CLR 22/19 A2990 RMK AO2 LTG DSNT W AND NW
KBBG 220415Z AUTO 14009KT 10SM FEW027 SCT035 20/19 A2994 RMK AO2
KBBG 220355Z AUTO 14006KT 10SM FEW029 SCT035 20/19 A2995 RMK AO2
KBBG 220335Z AUTO 14008KT 10SM CLR 20/19 A2995 RMK AO2
KBBG 220315Z AUTO 13009KT 10SM FEW040 FEW048 BKN070 20/19 A2995 RMK AO2